Map

Track Data

SID SEASON NUMBER BASIN SUBBASIN NAME ISO_TIME NATURE LAT LON WMO_WIND WMO_PRES WMO_AGENCY TRACK_TYPE DIST2LAND LANDFALL IFLAG USA_AGENCY USA_ATCF_ID USA_LAT USA_LON USA_RECORD USA_STATUS USA_WIND USA_PRES USA_SSHS USA_R34_NE USA_R34_SE USA_R34_SW USA_R34_NW USA_R50_NE USA_R50_SE USA_R50_SW USA_R50_NW USA_R64_NE USA_R64_SE USA_R64_SW USA_R64_NW USA_POCI USA_ROCI USA_RMW USA_EYE TOKYO_LAT TOKYO_LON TOKYO_GRADE TOKYO_WIND TOKYO_PRES TOKYO_R50_DIR TOKYO_R50_LONG TOKYO_R50_SHORT TOKYO_R30_DIR TOKYO_R30_LONG TOKYO_R30_SHORT TOKYO_LAND CMA_LAT CMA_LON CMA_CAT CMA_WIND CMA_PRES HKO_LAT HKO_LON HKO_CAT HKO_WIND HKO_PRES NEWDELHI_LAT NEWDELHI_LON NEWDELHI_GRADE NEWDELHI_WIND NEWDELHI_PRES NEWDELHI_CI NEWDELHI_DP NEWDELHI_POCI REUNION_LAT REUNION_LON REUNION_TYPE REUNION_WIND REUNION_PRES REUNION_TNUM REUNION_CI REUNION_RMW REUNION_R34_NE REUNION_R34_SE REUNION_R34_SW REUNION_R34_NW REUNION_R50_NE REUNION_R50_SE REUNION_R50_SW REUNION_R50_NW REUNION_R64_NE REUNION_R64_SE REUNION_R64_SW REUNION_R64_NW BOM_LAT BOM_LON BOM_TYPE BOM_WIND BOM_PRES BOM_TNUM BOM_CI BOM_RMW BOM_R34_NE BOM_R34_SE BOM_R34_SW BOM_R34_NW BOM_R50_NE BOM_R50_SE BOM_R50_SW BOM_R50_NW BOM_R64_NE BOM_R64_SE BOM_R64_SW BOM_R64_NW BOM_ROCI BOM_POCI BOM_EYE BOM_POS_METHOD BOM_PRES_METHOD NADI_LAT NADI_LON NADI_CAT NADI_WIND NADI_PRES WELLINGTON_LAT WELLINGTON_LON WELLINGTON_WIND WELLINGTON_PRES DS824_LAT DS824_LON DS824_STAGE DS824_WIND DS824_PRES TD9636_LAT TD9636_LON TD9636_STAGE TD9636_WIND TD9636_PRES TD9635_LAT TD9635_LON TD9635_WIND TD9635_PRES TD9635_ROCI NEUMANN_LAT NEUMANN_LON NEUMANN_CLASS NEUMANN_WIND NEUMANN_PRES MLC_LAT MLC_LON MLC_CLASS MLC_WIND MLC_PRES USA_GUST BOM_GUST BOM_GUST_PER REUNION_GUST REUNION_GUST_PER USA_SEAHGT USA_SEARAD_NE USA_SEARAD_SE USA_SEARAD_SW USA_SEARAD_NW STORM_SPEED STORM_DIR
1911299N23285 1911 68 NA NA NOT_NAMED 1911-10-26 00:00:00 TS 22.5000 -75.5000 30 hurdat_atl main 162 128 O_____________ hurdat_atl AL061911 22.5000 -75.5000 TD 30 -1 14 270
1911299N23285 1911 68 NA NA NOT_NAMED 1911-10-26 03:00:00 TS 22.4981 -76.2476 main 128 90 P_____________ AL061911 22.4981 -76.2476 TD 30 -1 14 270
1911299N23285 1911 68 NA NA NOT_NAMED 1911-10-26 06:00:00 TS 22.5000 -77.0000 30 hurdat_atl main 90 63 O_____________ hurdat_atl AL061911 22.5000 -77.0000 TD 30 -1 14 270
1911299N23285 1911 68 NA NA NOT_NAMED 1911-10-26 09:00:00 TS 22.5073 -77.7574 main 59 22 P_____________ AL061911 22.5073 -77.7574 TD 30 -1 14 270
1911299N23285 1911 68 NA NA NOT_NAMED 1911-10-26 12:00:00 TS 22.5000 -78.5000 30 hurdat_atl main 22 22 O_____________ hurdat_atl AL061911 22.5000 -78.5000 TD 30 -1 13 268
1911299N23285 1911 68 NA NA NOT_NAMED 1911-10-26 15:00:00 TS 22.4571 -79.2076 main 22 0 P_____________ AL061911 22.4571 -79.2076 TD 30 -1 13 266
1911299N23285 1911 68 NA NA NOT_NAMED 1911-10-26 18:00:00 TS 22.4000 -79.9000 30 hurdat_atl main 0 0 O_____________ hurdat_atl AL061911 22.4000 -79.9000 TD 30 -1 13 265
1911299N23285 1911 68 NA NA NOT_NAMED 1911-10-26 21:00:00 TS 22.3497 -80.6000 main 0 0 P_____________ AL061911 22.3497 -80.6000 TD 30 -1 13 266
1911299N23285 1911 68 NA NA NOT_NAMED 1911-10-27 00:00:00 TS 22.3000 -81.3000 30 hurdat_atl main 0 0 O_____________ hurdat_atl AL061911 22.3000 -81.3000 TD 30 -1 13 266
1911299N23285 1911 68 NA CS NOT_NAMED 1911-10-27 03:00:00 TS 22.2573 -82.0073 main 0 0 P_____________ AL061911 22.2573 -82.0073 TD 32 -1 13 266
1911299N23285 1911 68 NA CS NOT_NAMED 1911-10-27 06:00:00 TS 22.2000 -82.7000 35 hurdat_atl main 44 11 O_____________ hurdat_atl AL061911 22.2000 -82.7000 TS 35 0 13 264
1911299N23285 1911 68 NA CS NOT_NAMED 1911-10-27 09:00:00 TS 22.1150 -83.3950 main 11 0 P_____________ AL061911 22.1150 -83.3950 TS 40 0 12 261
1911299N23285 1911 68 NA CS NOT_NAMED 1911-10-27 12:00:00 TS 22.0000 -84.0000 45 hurdat_atl main 0 0 O_____________ hurdat_atl AL061911 22.0000 -84.0000 TS 45 0 10 255
1911299N23285 1911 68 NA NA NOT_NAMED 1911-10-27 15:00:00 TS 21.8572 -84.4599 main 0 0 P_____________ AL061911 21.8572 -84.4599 TS 45 0 8 248
1911299N23285 1911 68 NA CS NOT_NAMED 1911-10-27 18:00:00 TS 21.7000 -84.8000 45 hurdat_atl main 11 11 O_____________ hurdat_atl AL061911 21.7000 -84.8000 TS 45 0 7 241
1911299N23285 1911 68 NA CS NOT_NAMED 1911-10-27 21:00:00 TS 21.5424 -85.0799 main 45 45 P_____________ AL061911 21.5424 -85.0799 TS 45 0 6 237
1911299N23285 1911 68 NA CS NOT_NAMED 1911-10-28 00:00:00 TS 21.4000 -85.3000 45 hurdat_atl main 63 63 O_____________ hurdat_atl AL061911 21.4000 -85.3000 TS 45 0 5 238
1911299N23285 1911 68 NA CS NOT_NAMED 1911-10-28 03:00:00 TS 21.2925 -85.5149 main 84 84 P_____________ AL061911 21.2925 -85.5149 TS 45 0 4 242
1911299N23285 1911 68 NA CS NOT_NAMED 1911-10-28 06:00:00 TS 21.2000 -85.7000 45 hurdat_atl main 104 82 O_____________ hurdat_atl AL061911 21.2000 -85.7000 TS 45 0 4 240
1911299N23285 1911 68 NA CS NOT_NAMED 1911-10-28 09:00:00 TS 21.1000 -85.8650 main 82 73 P_____________ AL061911 21.1000 -85.8650 TS 45 0 3 235
1911299N23285 1911 68 NA CS NOT_NAMED 1911-10-28 12:00:00 TS 21.0000 -86.0000 45 hurdat_atl main 73 63 O_____________ hurdat_atl AL061911 21.0000 -86.0000 TS 45 0 3 229
1911299N23285 1911 68 NA CS NOT_NAMED 1911-10-28 15:00:00 TS 20.9000 -86.1075 main 66 56 P_____________ AL061911 20.9000 -86.1075 TS 45 0 3 223
1911299N23285 1911 68 NA CS NOT_NAMED 1911-10-28 18:00:00 TS 20.8000 -86.2000 45 hurdat_atl main 61 61 O_____________ hurdat_atl AL061911 20.8000 -86.2000 TS 45 0 3 221
1911299N23285 1911 68 NA CS NOT_NAMED 1911-10-28 21:00:00 TS 20.6925 -86.3075 main 61 56 P_____________ AL061911 20.6925 -86.3075 TS 45 0 3 223
1911299N23285 1911 68 NA CS NOT_NAMED 1911-10-29 00:00:00 TS 20.6000 -86.4000 45 hurdat_atl main 56 53 O_____________ hurdat_atl AL061911 20.6000 -86.4000 TS 45 0 2 223
1911299N23285 1911 68 NA CS NOT_NAMED 1911-10-29 03:00:00 TS 20.5350 -86.4650 main 53 53 P_____________ AL061911 20.5350 -86.4650 TS 42 0 1 223
1911299N23285 1911 68 NA CS NOT_NAMED 1911-10-29 06:00:00 TS 20.5000 -86.5000 40 hurdat_atl main 53 53 O_____________ hurdat_atl AL061911 20.5000 -86.5000 TS 40 0 1 215
1911299N23285 1911 68 NA CS NOT_NAMED 1911-10-29 09:00:00 TS 20.4700 -86.5150 main 53 53 P_____________ AL061911 20.4700 -86.5150 TS 40 0 0 0
1911299N23285 1911 68 NA CS NOT_NAMED 1911-10-29 12:00:00 TS 20.5000 -86.5000 40 hurdat_atl main 53 47 O_____________ hurdat_atl AL061911 20.5000 -86.5000 TS 40 0 2 19
1911299N23285 1911 68 NA CS NOT_NAMED 1911-10-29 15:00:00 TS 20.6200 -86.4575 main 47 45 P_____________ AL061911 20.6200 -86.4575 TS 37 0 3 17
1911299N23285 1911 68 NA CS NOT_NAMED 1911-10-29 18:00:00 TS 20.8000 -86.4000 35 hurdat_atl main 45 33 O_____________ hurdat_atl AL061911 20.8000 -86.4000 TS 35 0 4 16
1911299N23285 1911 68 NA CS NOT_NAMED 1911-10-29 21:00:00 TS 20.9775 -86.3574 main 33 33 P_____________ AL061911 20.9775 -86.3574 TS 35 0 4 13
1911299N23285 1911 68 NA CS NOT_NAMED 1911-10-30 00:00:00 TS 21.2000 -86.3000 35 hurdat_atl main 42 42 O_____________ hurdat_atl AL061911 21.2000 -86.3000 TS 35 0 5 15
1911299N23285 1911 68 NA CS NOT_NAMED 1911-10-30 03:00:00 TS 21.4775 -86.2075 main 66 66 P_____________ AL061911 21.4775 -86.2075 TS 35 0 6 17
1911299N23285 1911 68 NA GM NOT_NAMED 1911-10-30 06:00:00 TS 21.8000 -86.1000 35 hurdat_atl main 91 91 O_____________ hurdat_atl AL061911 21.8000 -86.1000 TS 35 0 7 18
1911299N23285 1911 68 NA GM NOT_NAMED 1911-10-30 09:00:00 TS 22.1200 -85.9776 main 105 98 P_____________ AL061911 22.1200 -85.9776 TS 35 0 7 15
1911299N23285 1911 68 NA GM NOT_NAMED 1911-10-30 12:00:00 TS 22.5000 -85.9000 35 hurdat_atl main 114 114 O_____________ hurdat_atl AL061911 22.5000 -85.9000 TS 35 0 9 3
1911299N23285 1911 68 NA GM NOT_NAMED 1911-10-30 15:00:00 TS 22.9775 -85.9273 main 153 153 P_____________ AL061911 22.9775 -85.9273 TS 37 0 10 355
1911299N23285 1911 68 NA GM NOT_NAMED 1911-10-30 18:00:00 TS 23.5000 -86.0000 40 hurdat_atl main 206 206 O_____________ hurdat_atl AL061911 23.5000 -86.0000 TS 40 0 10 353
1911299N23285 1911 68 NA GM NOT_NAMED 1911-10-30 21:00:00 TS 24.0000 -86.0574 main 256 256 P_____________ AL061911 24.0000 -86.0574 TS 42 0 10 355
1911299N23285 1911 68 NA GM NOT_NAMED 1911-10-31 00:00:00 TS 24.5000 -86.1000 45 hurdat_atl main 293 293 O_____________ hurdat_atl AL061911 24.5000 -86.1000 TS 45 0 10 357
1911299N23285 1911 68 NA GM NOT_NAMED 1911-10-31 03:00:00 TS 25.0000 -86.1150 main 334 334 P_____________ AL061911 25.0000 -86.1150 TS 45 0 10 1
1911299N23285 1911 68 NA GM NOT_NAMED 1911-10-31 06:00:00 TS 25.5000 -86.1000 45 hurdat_atl main 378 376 O_____________ hurdat_atl AL061911 25.5000 -86.1000 TS 45 0 10 0
1911299N23285 1911 68 NA GM NOT_NAMED 1911-10-31 09:00:00 TS 25.9997 -86.1242 main 376 343 P_____________ AL061911 25.9997 -86.1242 TS 45 0 10 5
1911299N23285 1911 68 NA GM NOT_NAMED 1911-10-31 12:00:00 TS 26.5000 -86.0000 45 hurdat_atl main 343 297 O_____________ hurdat_atl AL061911 26.5000 -86.0000 TS 45 0 10 23
1911299N23285 1911 68 NA GM NOT_NAMED 1911-10-31 15:00:00 TS 26.9610 -85.6777 main 293 220 P_____________ AL061911 26.9610 -85.6777 TS 40 0 13 42
1911299N23285 1911 68 NA GM NOT_NAMED 1911-10-31 18:00:00 ET 27.5000 -85.0000 35 hurdat_atl main 211 110 O_____________ hurdat_atl AL061911 27.5000 -85.0000 EX 35 -4 20 52
1911299N23285 1911 68 NA GM NOT_NAMED 1911-10-31 21:00:00 ET 28.2041 -83.8834 main 103 0 P_____________ AL061911 28.2041 -83.8834 EX 30 -4 27 56
1911299N23285 1911 68 NA NA NOT_NAMED 1911-11-01 00:00:00 ET 29.0000 -82.5000 25 hurdat_atl main 0 O_____________ hurdat_atl AL061911 29.0000 -82.5000 EX 25 -4 29 57

About IBTrACS Database

This database is a web-friendly format of International Best Track Archive for Climate Stewardship (IBTrACS), a global best track data archive curated by NOAA dating back to 1842.

Updated: 2021-11-26